PWSweather.com
Personal Weather Stations
Station Observations
TARRYHILL
Tarrytown, NY 10591

Tarrytown, NY 10591

Lat: 41.05185, Lon: -73.85296

Elevation: 341

Station Type: Davis Vantage Vue

Latest ConditionsUpdated 11:30:37 PM EST Thursday, Dec 18, 2014
Currently Today's Max Today's Min Today's Average
Temperature 35.1°F1.7°C 40.2°F4.6°C 34.6°F1.4°C 37.1°F2.8°C
Dew Point 27.6°F-2.4°C 30.5°F-0.8°C 25.2°F-3.8°C 27.6°F-2.4°C
Winds 2.3 mph SW3.7 kmh SW 6.4 mph NE10.3 kmh NE - 2.7 mph 4.3 kmh
Wind Gusts 6.0 mph9.7 kmh 16.0 mph25.7 kmh - -
Humidity 74% 77% 61% 69%
Pressure 29.95 in1014.2 mb 29.97 in1014.9 mb 29.86 in1011.2 mb -
Hour Temp Dew Point Humidity Winds Wind Gusts Pressure Precip Precip Rate Daily Precip Total
11:30 PM 35.1°F1.7°C 27.6°F-2.4°C 74% 2.3 mph SW3.7 kmh SW 6.0 mph9.7 kmh 29.95 in1014.2 mb 0.00 in0.0 mm 0.00 in/hr0.0 mm/hr 0.00 in0.0 mm
11:20 PM 34.9°F1.6°C 27.8°F-2.3°C 75% 0.5 mph WNW0.8 kmh WNW 2.0 mph3.2 kmh 29.95 in1014.2 mb 0.00 in0.0 mm 0.00 in/hr0.0 mm/hr 0.00 in0.0 mm
11:10 PM 34.8°F1.6°C 27.7°F-2.4°C 75% 0.5 mph E0.8 kmh E 5.0 mph8.0 kmh 29.95 in1014.2 mb 0.00 in0.0 mm 0.00 in/hr0.0 mm/hr 0.00 in0.0 mm
11:00 PM 34.7°F1.5°C 27.6°F-2.4°C 75% 0.8 mph NW1.3 kmh NW 2.0 mph3.2 kmh 29.96 in1014.6 mb 0.00 in0.0 mm 0.00 in/hr0.0 mm/hr 0.00 in0.0 mm
10:50 PM 34.7°F1.5°C 27.6°F-2.4°C 75% 0.9 mph WSW1.4 kmh WSW 2.0 mph3.2 kmh 29.96 in1014.6 mb 0.00 in0.0 mm 0.00 in/hr0.0 mm/hr 0.00 in0.0 mm
10:40 PM 34.7°F1.5°C 27.9°F-2.3°C 76% 0.8 mph SE1.3 kmh SE 2.0 mph3.2 kmh 29.96 in1014.6 mb 0.00 in0.0 mm 0.00 in/hr0.0 mm/hr 0.00 in0.0 mm
10:30 PM 34.6°F1.4°C 27.8°F-2.3°C 76% 0.8 mph SW1.3 kmh SW 5.0 mph8.0 kmh 29.97 in1014.9 mb 0.00 in0.0 mm 0.00 in/hr0.0 mm/hr 0.00 in0.0 mm
10:20 PM 34.7°F1.5°C 27.9°F-2.3°C 76% 2.1 mph N3.4 kmh N 6.0 mph9.7 kmh 29.96 in1014.6 mb 0.00 in0.0 mm 0.00 in/hr0.0 mm/hr 0.00 in0.0 mm
10:10 PM 34.7°F1.5°C 27.9°F-2.3°C 76% 3.2 mph SW5.1 kmh SW 5.0 mph8.0 kmh 29.96 in1014.6 mb 0.00 in0.0 mm 0.00 in/hr0.0 mm/hr 0.00 in0.0 mm
10:00 PM 34.7°F1.5°C 28.0°F-2.2°C 76% 0.8 mph SW1.3 kmh SW 1.0 mph1.6 kmh 29.96 in1014.6 mb 0.00 in0.0 mm 0.00 in/hr0.0 mm/hr 0.00 in0.0 mm
09:50 PM 34.8°F1.6°C 28.0°F-2.2°C 76% 1.1 mph SE1.8 kmh SE 4.0 mph6.4 kmh 29.95 in1014.2 mb 0.00 in0.0 mm 0.00 in/hr0.0 mm/hr 0.00 in0.0 mm
09:40 PM 34.8°F1.6°C 28.0°F-2.2°C 76% 1.4 mph E2.3 kmh E 6.0 mph9.7 kmh 29.95 in1014.2 mb 0.00 in0.0 mm 0.00 in/hr0.0 mm/hr 0.00 in0.0 mm
09:30 PM 34.8°F1.6°C 28.0°F-2.2°C 76% 1.7 mph NW2.7 kmh NW 2.0 mph3.2 kmh 29.95 in1014.2 mb 0.00 in0.0 mm 0.00 in/hr0.0 mm/hr 0.00 in0.0 mm
09:20 PM 34.9°F1.6°C 28.1°F-2.2°C 76% 1.3 mph NW2.1 kmh NW 3.0 mph4.8 kmh 29.95 in1014.2 mb 0.00 in0.0 mm 0.00 in/hr0.0 mm/hr 0.00 in0.0 mm
09:10 PM 34.9°F1.6°C 28.1°F-2.2°C 76% 1.2 mph N1.9 kmh N 4.0 mph6.4 kmh 29.95 in1014.2 mb 0.00 in0.0 mm 0.00 in/hr0.0 mm/hr 0.00 in0.0 mm
09:00 PM 34.9°F1.6°C 28.1°F-2.2°C 76% 0.8 mph WSW1.3 kmh WSW 2.0 mph3.2 kmh 29.94 in1013.9 mb 0.00 in0.0 mm 0.00 in/hr0.0 mm/hr 0.00 in0.0 mm
08:50 PM 34.8°F1.6°C 28.3°F-2.1°C 77% 2.1 mph NW3.4 kmh NW 6.0 mph9.7 kmh 29.95 in1014.2 mb 0.00 in0.0 mm 0.00 in/hr0.0 mm/hr 0.00 in0.0 mm
08:40 PM 35.1°F1.7°C 28.3°F-2.1°C 76% 0.2 mph SE0.3 kmh SE -- 29.95 in1014.2 mb 0.00 in0.0 mm 0.00 in/hr0.0 mm/hr 0.00 in0.0 mm
08:30 PM 35.3°F1.8°C 28.4°F-2.0°C 76% 4.3 mph ESE6.9 kmh ESE 5.0 mph8.0 kmh 29.95 in1014.2 mb 0.00 in0.0 mm 0.00 in/hr0.0 mm/hr 0.00 in0.0 mm
08:20 PM 35.5°F1.9°C 28.3°F-2.1°C 75% 1.0 mph W1.6 kmh W 2.0 mph3.2 kmh 29.96 in1014.6 mb 0.00 in0.0 mm 0.00 in/hr0.0 mm/hr 0.00 in0.0 mm
08:10 PM 35.5°F1.9°C 28.4°F-2.0°C 75% 1.6 mph S2.6 kmh S 4.0 mph6.4 kmh 29.96 in1014.6 mb 0.00 in0.0 mm 0.00 in/hr0.0 mm/hr 0.00 in0.0 mm
08:00 PM 35.8°F2.1°C 28.6°F-1.9°C 75% 1.7 mph E2.7 kmh E 5.0 mph8.0 kmh 29.96 in1014.6 mb 0.00 in0.0 mm 0.00 in/hr0.0 mm/hr 0.00 in0.0 mm
07:50 PM 36.0°F2.2°C 28.5°F-1.9°C 74% 4.1 mph WSW6.6 kmh WSW 11.0 mph17.7 kmh 29.95 in1014.2 mb 0.00 in0.0 mm 0.00 in/hr0.0 mm/hr 0.00 in0.0 mm
07:40 PM 36.1°F2.3°C 29.0°F-1.7°C 75% 2.1 mph NW3.4 kmh NW 4.0 mph6.4 kmh 29.96 in1014.6 mb 0.00 in0.0 mm 0.00 in/hr0.0 mm/hr 0.00 in0.0 mm
07:30 PM 36.2°F2.3°C 29.0°F-1.7°C 75% 1.5 mph NNW2.4 kmh NNW 3.0 mph4.8 kmh 29.96 in1014.6 mb 0.00 in0.0 mm 0.00 in/hr0.0 mm/hr 0.00 in0.0 mm
07:20 PM 36.3°F2.4°C 28.8°F-1.8°C 74% 2.3 mph NNW3.7 kmh NNW 2.0 mph3.2 kmh 29.95 in1014.2 mb 0.00 in0.0 mm 0.00 in/hr0.0 mm/hr 0.00 in0.0 mm
07:10 PM 36.3°F2.4°C 28.8°F-1.8°C 74% 0.5 mph NW0.8 kmh NW 2.0 mph3.2 kmh 29.95 in1014.2 mb 0.00 in0.0 mm 0.00 in/hr0.0 mm/hr 0.00 in0.0 mm
07:00 PM 36.4°F2.4°C 28.9°F-1.7°C 74% 1.8 mph NW2.9 kmh NW 6.0 mph9.7 kmh 29.96 in1014.6 mb 0.00 in0.0 mm 0.00 in/hr0.0 mm/hr 0.00 in0.0 mm
06:50 PM 36.4°F2.4°C 28.9°F-1.7°C 74% 2.9 mph ENE4.7 kmh ENE 8.0 mph12.9 kmh 29.96 in1014.6 mb 0.00 in0.0 mm 0.00 in/hr0.0 mm/hr 0.00 in0.0 mm
06:40 PM 36.4°F2.4°C 28.9°F-1.7°C 74% 1.3 mph NNW2.1 kmh NNW 5.0 mph8.0 kmh 29.96 in1014.6 mb 0.00 in0.0 mm 0.00 in/hr0.0 mm/hr 0.00 in0.0 mm
06:30 PM 36.4°F2.4°C 28.6°F-1.9°C 73% 1.3 mph WNW2.1 kmh WNW 6.0 mph9.7 kmh 29.96 in1014.6 mb 0.00 in0.0 mm 0.00 in/hr0.0 mm/hr 0.00 in0.0 mm
06:20 PM 36.4°F2.4°C 28.6°F-1.9°C 73% 3.8 mph NE6.1 kmh NE 7.0 mph11.3 kmh 29.95 in1014.2 mb 0.00 in0.0 mm 0.00 in/hr0.0 mm/hr 0.00 in0.0 mm
06:10 PM 36.4°F2.4°C 28.6°F-1.9°C 73% 3.8 mph ESE6.1 kmh ESE 9.0 mph14.5 kmh 29.95 in1014.2 mb 0.00 in0.0 mm 0.00 in/hr0.0 mm/hr 0.00 in0.0 mm
06:00 PM 36.5°F2.5°C 28.7°F-1.8°C 73% 3.1 mph NE5.0 kmh NE 9.0 mph14.5 kmh 29.95 in1014.2 mb 0.00 in0.0 mm 0.00 in/hr0.0 mm/hr 0.00 in0.0 mm
05:50 PM 36.7°F2.6°C 28.5°F-1.9°C 72% 2.5 mph W4.0 kmh W 7.0 mph11.3 kmh 29.95 in1014.2 mb 0.00 in0.0 mm 0.00 in/hr0.0 mm/hr 0.00 in0.0 mm
05:40 PM 36.7°F2.6°C 28.5°F-1.9°C 72% 3.4 mph NW5.5 kmh NW 8.0 mph12.9 kmh 29.96 in1014.6 mb 0.00 in0.0 mm 0.00 in/hr0.0 mm/hr 0.00 in0.0 mm
05:30 PM 36.8°F2.7°C 28.3°F-2.1°C 71% 1.2 mph W1.9 kmh W 3.0 mph4.8 kmh 29.96 in1014.6 mb 0.00 in0.0 mm 0.00 in/hr0.0 mm/hr 0.00 in0.0 mm
05:20 PM 36.8°F2.7°C 28.3°F-2.1°C 71% 1.9 mph W3.1 kmh W 6.0 mph9.7 kmh 29.96 in1014.6 mb 0.00 in0.0 mm 0.00 in/hr0.0 mm/hr 0.00 in0.0 mm
05:10 PM 36.9°F2.7°C 28.0°F-2.2°C 70% 0.5 mph NNW0.8 kmh NNW 4.0 mph6.4 kmh 29.96 in1014.6 mb 0.00 in0.0 mm 0.00 in/hr0.0 mm/hr 0.00 in0.0 mm
05:00 PM 36.9°F2.7°C 28.1°F-2.2°C 70% 3.4 mph SW5.5 kmh SW 12.0 mph19.3 kmh 29.96 in1014.6 mb 0.00 in0.0 mm 0.00 in/hr0.0 mm/hr 0.00 in0.0 mm
04:50 PM 37.0°F2.8°C 28.1°F-2.2°C 70% 1.1 mph E1.8 kmh E 2.0 mph3.2 kmh 29.97 in1014.9 mb 0.00 in0.0 mm 0.00 in/hr0.0 mm/hr 0.00 in0.0 mm
04:40 PM 37.1°F2.8°C 28.2°F-2.1°C 70% 1.4 mph E2.3 kmh E 6.0 mph9.7 kmh 29.96 in1014.6 mb 0.00 in0.0 mm 0.00 in/hr0.0 mm/hr 0.00 in0.0 mm
04:30 PM 37.1°F2.8°C 28.2°F-2.1°C 70% 1.3 mph S2.1 kmh S 9.0 mph14.5 kmh 29.97 in1014.9 mb 0.00 in0.0 mm 0.00 in/hr0.0 mm/hr 0.00 in0.0 mm
04:20 PM 37.3°F2.9°C 28.0°F-2.2°C 69% 1.5 mph N2.4 kmh N 5.0 mph8.0 kmh 29.96 in1014.6 mb 0.00 in0.0 mm 0.00 in/hr0.0 mm/hr 0.00 in0.0 mm
04:10 PM 37.4°F3.0°C 27.8°F-2.3°C 68% 1.1 mph SW1.8 kmh SW 4.0 mph6.4 kmh 29.96 in1014.6 mb 0.00 in0.0 mm 0.00 in/hr0.0 mm/hr 0.00 in0.0 mm
04:01 PM 37.5°F3.1°C 27.9°F-2.3°C 68% 2.7 mph NW4.3 kmh NW 7.0 mph11.3 kmh 29.96 in1014.6 mb 0.00 in0.0 mm 0.00 in/hr0.0 mm/hr 0.00 in0.0 mm
03:50 PM 37.7°F3.2°C 28.1°F-2.2°C 68% 2.6 mph WSW4.2 kmh WSW 5.0 mph8.0 kmh 29.95 in1014.2 mb 0.00 in0.0 mm 0.00 in/hr0.0 mm/hr 0.00 in0.0 mm
03:40 PM 37.9°F3.3°C 28.3°F-2.1°C 68% 2.3 mph WNW3.7 kmh WNW 8.0 mph12.9 kmh 29.95 in1014.2 mb 0.00 in0.0 mm 0.00 in/hr0.0 mm/hr 0.00 in0.0 mm
03:30 PM 38.1°F3.4°C 28.1°F-2.2°C 67% 2.9 mph NW4.7 kmh NW 9.0 mph14.5 kmh 29.94 in1013.9 mb 0.00 in0.0 mm 0.00 in/hr0.0 mm/hr 0.00 in0.0 mm
03:20 PM 38.7°F3.7°C 27.9°F-2.3°C 65% 2.2 mph ESE3.5 kmh ESE 5.0 mph8.0 kmh 29.94 in1013.9 mb 0.00 in0.0 mm 0.00 in/hr0.0 mm/hr 0.00 in0.0 mm
03:10 PM 38.9°F3.8°C 28.5°F-1.9°C 66% 4.5 mph ESE7.2 kmh ESE 8.0 mph12.9 kmh 29.94 in1013.9 mb 0.00 in0.0 mm 0.00 in/hr0.0 mm/hr 0.00 in0.0 mm
03:01 PM 39.1°F3.9°C 28.0°F-2.2°C 64% 3.3 mph SE5.3 kmh SE 7.0 mph11.3 kmh 29.93 in1013.5 mb 0.00 in0.0 mm 0.00 in/hr0.0 mm/hr 0.00 in0.0 mm
02:50 PM 39.5°F4.2°C 28.3°F-2.1°C 64% 3.0 mph WNW4.8 kmh WNW 7.0 mph11.3 kmh 29.93 in1013.5 mb 0.00 in0.0 mm 0.00 in/hr0.0 mm/hr 0.00 in0.0 mm
02:40 PM 39.5°F4.2°C 28.3°F-2.1°C 64% 2.0 mph NW3.2 kmh NW 3.0 mph4.8 kmh 29.93 in1013.5 mb 0.00 in0.0 mm 0.00 in/hr0.0 mm/hr 0.00 in0.0 mm
02:30 PM 38.9°F3.8°C 27.8°F-2.3°C 64% 2.6 mph E4.2 kmh E 7.0 mph11.3 kmh 29.92 in1013.2 mb 0.00 in0.0 mm 0.00 in/hr0.0 mm/hr 0.00 in0.0 mm
02:20 PM 39.4°F4.1°C 27.8°F-2.3°C 63% 2.9 mph W4.7 kmh W 5.0 mph8.0 kmh 29.92 in1013.2 mb 0.00 in0.0 mm 0.00 in/hr0.0 mm/hr 0.00 in0.0 mm
02:10 PM 38.7°F3.7°C 27.9°F-2.3°C 65% 2.9 mph WNW4.7 kmh WNW 6.0 mph9.7 kmh 29.91 in1012.9 mb 0.00 in0.0 mm 0.00 in/hr0.0 mm/hr 0.00 in0.0 mm
02:01 PM 38.8°F3.8°C 27.7°F-2.4°C 64% 4.3 mph WSW6.9 kmh WSW 8.0 mph12.9 kmh 29.92 in1013.2 mb 0.00 in0.0 mm 0.00 in/hr0.0 mm/hr 0.00 in0.0 mm
01:50 PM 39.2°F4.0°C 28.0°F-2.2°C 64% 2.2 mph NW3.5 kmh NW 9.0 mph14.5 kmh 29.92 in1013.2 mb 0.00 in0.0 mm 0.00 in/hr0.0 mm/hr 0.00 in0.0 mm
01:40 PM 39.3°F4.1°C 27.7°F-2.4°C 63% 2.0 mph NW3.2 kmh NW 5.0 mph8.0 kmh 29.92 in1013.2 mb 0.00 in0.0 mm 0.00 in/hr0.0 mm/hr 0.00 in0.0 mm
01:30 PM 39.0°F3.9°C 27.5°F-2.5°C 63% 3.8 mph SE6.1 kmh SE 11.0 mph17.7 kmh 29.92 in1013.2 mb 0.00 in0.0 mm 0.00 in/hr0.0 mm/hr 0.00 in0.0 mm
01:20 PM 39.1°F3.9°C 27.6°F-2.4°C 63% 2.7 mph WSW4.3 kmh WSW 4.0 mph6.4 kmh 29.92 in1013.2 mb 0.00 in0.0 mm 0.00 in/hr0.0 mm/hr 0.00 in0.0 mm
01:10 PM 39.7°F4.3°C 27.7°F-2.4°C 62% 4.2 mph SW6.8 kmh SW 11.0 mph17.7 kmh 29.93 in1013.5 mb 0.00 in0.0 mm 0.00 in/hr0.0 mm/hr 0.00 in0.0 mm
01:01 PM 39.3°F4.1°C 28.1°F-2.2°C 64% 2.7 mph SW4.3 kmh SW 9.0 mph14.5 kmh 29.93 in1013.5 mb 0.00 in0.0 mm 0.00 in/hr0.0 mm/hr 0.00 in0.0 mm
12:50 PM 38.9°F3.8°C 27.4°F-2.6°C 63% 3.5 mph NW5.6 kmh NW 7.0 mph11.3 kmh 29.94 in1013.9 mb 0.00 in0.0 mm 0.00 in/hr0.0 mm/hr 0.00 in0.0 mm
12:40 PM 38.7°F3.7°C 27.5°F-2.5°C 64% 2.5 mph W4.0 kmh W 9.0 mph14.5 kmh 29.93 in1013.5 mb 0.00 in0.0 mm 0.00 in/hr0.0 mm/hr 0.00 in0.0 mm
12:30 PM 38.5°F3.6°C 27.4°F-2.6°C 64% 2.4 mph WNW3.9 kmh WNW 9.0 mph14.5 kmh 29.94 in1013.9 mb 0.00 in0.0 mm 0.00 in/hr0.0 mm/hr 0.00 in0.0 mm
12:20 PM 38.5°F3.6°C 27.0°F-2.8°C 63% 2.3 mph WSW3.7 kmh WSW 5.0 mph8.0 kmh 29.94 in1013.9 mb 0.00 in0.0 mm 0.00 in/hr0.0 mm/hr 0.00 in0.0 mm
12:10 PM 38.5°F3.6°C 27.0°F-2.8°C 63% 4.8 mph NNE7.7 kmh NNE 7.0 mph11.3 kmh 29.94 in1013.9 mb 0.00 in0.0 mm 0.00 in/hr0.0 mm/hr 0.00 in0.0 mm
12:01 PM 38.1°F3.4°C 26.6°F-3.0°C 63% 1.0 mph SW1.6 kmh SW 3.0 mph4.8 kmh 29.94 in1013.9 mb 0.00 in0.0 mm 0.00 in/hr0.0 mm/hr 0.00 in0.0 mm
11:50 AM 37.9°F3.3°C 26.8°F-2.9°C 64% 3.4 mph WNW5.5 kmh WNW 8.0 mph12.9 kmh 29.95 in1014.2 mb 0.00 in0.0 mm 0.00 in/hr0.0 mm/hr 0.00 in0.0 mm
11:40 AM 37.5°F3.1°C 26.4°F-3.1°C 64% 3.3 mph W5.3 kmh W 5.0 mph8.0 kmh 29.95 in1014.2 mb 0.00 in0.0 mm 0.00 in/hr0.0 mm/hr 0.00 in0.0 mm
11:30 AM 37.3°F2.9°C 26.3°F-3.2°C 64% 4.2 mph S6.8 kmh S 7.0 mph11.3 kmh 29.95 in1014.2 mb 0.00 in0.0 mm 0.00 in/hr0.0 mm/hr 0.00 in0.0 mm
11:20 AM 37.4°F3.0°C 26.0°F-3.3°C 63% 3.9 mph W6.3 kmh W 9.0 mph14.5 kmh 29.95 in1014.2 mb 0.00 in0.0 mm 0.00 in/hr0.0 mm/hr 0.00 in0.0 mm
11:10 AM 37.7°F3.2°C 26.6°F-3.0°C 64% 2.6 mph ENE4.2 kmh ENE 9.0 mph14.5 kmh 29.95 in1014.2 mb 0.00 in0.0 mm 0.00 in/hr0.0 mm/hr 0.00 in0.0 mm
11:01 AM 37.8°F3.2°C 26.3°F-3.2°C 63% 2.1 mph WSW3.4 kmh WSW 8.0 mph12.9 kmh 29.96 in1014.6 mb 0.00 in0.0 mm 0.00 in/hr0.0 mm/hr 0.00 in0.0 mm
10:50 AM 38.1°F3.4°C 26.6°F-3.0°C 63% 3.3 mph WSW5.3 kmh WSW 5.0 mph8.0 kmh 29.96 in1014.6 mb 0.00 in0.0 mm 0.00 in/hr0.0 mm/hr 0.00 in0.0 mm
10:40 AM 38.3°F3.5°C 26.8°F-2.9°C 63% 1.4 mph SE2.3 kmh SE 5.0 mph8.0 kmh 29.96 in1014.6 mb 0.00 in0.0 mm 0.00 in/hr0.0 mm/hr 0.00 in0.0 mm
10:30 AM 38.8°F3.8°C 26.5°F-3.1°C 61% 3.4 mph WNW5.5 kmh WNW 6.0 mph9.7 kmh 29.97 in1014.9 mb 0.00 in0.0 mm 0.00 in/hr0.0 mm/hr 0.00 in0.0 mm
10:20 AM 38.1°F3.4°C 26.7°F-2.9°C 63% 2.1 mph SE3.4 kmh SE 6.0 mph9.7 kmh 29.97 in1014.9 mb 0.00 in0.0 mm 0.00 in/hr0.0 mm/hr 0.00 in0.0 mm
10:10 AM 37.7°F3.2°C 25.8°F-3.4°C 62% 5.9 mph NW9.5 kmh NW 13.0 mph20.9 kmh 29.97 in1014.9 mb 0.00 in0.0 mm 0.00 in/hr0.0 mm/hr 0.00 in0.0 mm
10:01 AM 37.6°F3.1°C 25.7°F-3.5°C 62% 5.2 mph W8.4 kmh W 8.0 mph12.9 kmh 29.97 in1014.9 mb 0.00 in0.0 mm 0.00 in/hr0.0 mm/hr 0.00 in0.0 mm
09:50 AM 37.4°F3.0°C 25.9°F-3.4°C 63% 3.9 mph ENE6.3 kmh ENE 4.0 mph6.4 kmh 29.97 in1014.9 mb 0.00 in0.0 mm 0.00 in/hr0.0 mm/hr 0.00 in0.0 mm
09:40 AM 36.8°F2.7°C 25.8°F-3.4°C 64% 3.1 mph WSW5.0 kmh WSW 8.0 mph12.9 kmh 29.97 in1014.9 mb 0.00 in0.0 mm 0.00 in/hr0.0 mm/hr 0.00 in0.0 mm
09:30 AM 36.5°F2.5°C 25.8°F-3.4°C 65% 5.0 mph ENE8.0 kmh ENE 8.0 mph12.9 kmh 29.97 in1014.9 mb 0.00 in0.0 mm 0.00 in/hr0.0 mm/hr 0.00 in0.0 mm
09:20 AM 36.4°F2.4°C 25.7°F-3.5°C 65% 3.2 mph NW5.1 kmh NW 6.0 mph9.7 kmh 29.97 in1014.9 mb 0.00 in0.0 mm 0.00 in/hr0.0 mm/hr 0.00 in0.0 mm
09:10 AM 36.5°F2.5°C 25.8°F-3.4°C 65% 1.4 mph ESE2.3 kmh ESE 4.0 mph6.4 kmh 29.96 in1014.6 mb 0.00 in0.0 mm 0.00 in/hr0.0 mm/hr 0.00 in0.0 mm
09:01 AM 36.5°F2.5°C 25.9°F-3.4°C 65% 4.5 mph SW7.2 kmh SW 11.0 mph17.7 kmh 29.96 in1014.6 mb 0.00 in0.0 mm 0.00 in/hr0.0 mm/hr 0.00 in0.0 mm
08:50 AM 36.3°F2.4°C 25.6°F-3.6°C 65% 2.8 mph NW4.5 kmh NW 7.0 mph11.3 kmh 29.96 in1014.6 mb 0.00 in0.0 mm 0.00 in/hr0.0 mm/hr 0.00 in0.0 mm
08:40 AM 36.1°F2.3°C 25.5°F-3.6°C 65% 5.1 mph SSW8.2 kmh SSW 13.0 mph20.9 kmh 29.95 in1014.2 mb 0.00 in0.0 mm 0.00 in/hr0.0 mm/hr 0.00 in0.0 mm
08:30 AM 36.0°F2.2°C 25.3°F-3.7°C 65% 4.1 mph E6.6 kmh E 10.0 mph16.1 kmh 29.95 in1014.2 mb 0.00 in0.0 mm 0.00 in/hr0.0 mm/hr 0.00 in0.0 mm
08:20 AM 35.9°F2.2°C 25.6°F-3.6°C 66% 3.0 mph SW4.8 kmh SW 12.0 mph19.3 kmh 29.95 in1014.2 mb 0.00 in0.0 mm 0.00 in/hr0.0 mm/hr 0.00 in0.0 mm
08:10 AM 35.8°F2.1°C 25.9°F-3.4°C 67% 3.3 mph NW5.3 kmh NW 9.0 mph14.5 kmh 29.94 in1013.9 mb 0.00 in0.0 mm 0.00 in/hr0.0 mm/hr 0.00 in0.0 mm
08:01 AM 35.8°F2.1°C 25.5°F-3.6°C 66% 3.0 mph WSW4.8 kmh WSW 12.0 mph19.3 kmh 29.94 in1013.9 mb 0.00 in0.0 mm 0.00 in/hr0.0 mm/hr 0.00 in0.0 mm
07:50 AM 35.8°F2.1°C 25.9°F-3.4°C 67% 3.0 mph WNW4.8 kmh WNW 3.0 mph4.8 kmh 29.94 in1013.9 mb 0.00 in0.0 mm 0.00 in/hr0.0 mm/hr 0.00 in0.0 mm
07:40 AM 35.8°F2.1°C 25.5°F-3.6°C 66% 1.9 mph SW3.1 kmh SW 6.0 mph9.7 kmh 29.94 in1013.9 mb 0.00 in0.0 mm 0.00 in/hr0.0 mm/hr 0.00 in0.0 mm
07:30 AM 35.7°F2.1°C 25.5°F-3.6°C 66% 6.2 mph NW10.0 kmh NW 12.0 mph19.3 kmh 29.94 in1013.9 mb 0.00 in0.0 mm 0.00 in/hr0.0 mm/hr 0.00 in0.0 mm
07:20 AM 35.7°F2.1°C 25.8°F-3.4°C 67% 1.6 mph WSW2.6 kmh WSW 1.0 mph1.6 kmh 29.94 in1013.9 mb 0.00 in0.0 mm 0.00 in/hr0.0 mm/hr 0.00 in0.0 mm
07:10 AM 35.8°F2.1°C 25.9°F-3.4°C 67% 0.9 mph W1.4 kmh W 5.0 mph8.0 kmh 29.94 in1013.9 mb 0.00 in0.0 mm 0.00 in/hr0.0 mm/hr 0.00 in0.0 mm
07:00 AM 35.8°F2.1°C 25.6°F-3.6°C 66% 3.0 mph WNW4.8 kmh WNW 9.0 mph14.5 kmh 29.94 in1013.9 mb 0.00 in0.0 mm 0.00 in/hr0.0 mm/hr 0.00 in0.0 mm
06:50 AM 35.8°F2.1°C 25.2°F-3.8°C 65% 3.9 mph SW6.3 kmh SW 5.0 mph8.0 kmh 29.94 in1013.9 mb 0.00 in0.0 mm 0.00 in/hr0.0 mm/hr 0.00 in0.0 mm
06:40 AM 35.8°F2.1°C 25.5°F-3.6°C 66% 4.7 mph E7.6 kmh E 6.0 mph9.7 kmh 29.94 in1013.9 mb 0.00 in0.0 mm 0.00 in/hr0.0 mm/hr 0.00 in0.0 mm
06:30 AM 35.8°F2.1°C 25.5°F-3.6°C 66% 5.6 mph N9.0 kmh N 10.0 mph16.1 kmh 29.93 in1013.5 mb 0.00 in0.0 mm 0.00 in/hr0.0 mm/hr 0.00 in0.0 mm
06:20 AM 35.6°F2.0°C 25.4°F-3.7°C 66% 6.4 mph NE10.3 kmh NE 16.0 mph25.7 kmh 29.93 in1013.5 mb 0.00 in0.0 mm 0.00 in/hr0.0 mm/hr 0.00 in0.0 mm
06:10 AM 35.5°F1.9°C 25.3°F-3.7°C 66% 4.4 mph NW7.1 kmh NW 6.0 mph9.7 kmh 29.92 in1013.2 mb 0.00 in0.0 mm 0.00 in/hr0.0 mm/hr 0.00 in0.0 mm
06:00 AM 35.5°F1.9°C 26.3°F-3.2°C 69% 2.6 mph WSW4.2 kmh WSW 7.0 mph11.3 kmh 29.91 in1012.9 mb 0.00 in0.0 mm 0.00 in/hr0.0 mm/hr 0.00 in0.0 mm
05:50 AM 35.6°F2.0°C 26.4°F-3.1°C 69% 5.9 mph WSW9.5 kmh WSW 8.0 mph12.9 kmh 29.91 in1012.9 mb 0.00 in0.0 mm 0.00 in/hr0.0 mm/hr 0.00 in0.0 mm
05:40 AM 35.7°F2.1°C 26.9°F-2.8°C 70% 4.4 mph ENE7.1 kmh ENE 9.0 mph14.5 kmh 29.91 in1012.9 mb 0.00 in0.0 mm 0.00 in/hr0.0 mm/hr 0.00 in0.0 mm
05:30 AM 35.8°F2.1°C 27.3°F-2.6°C 71% 3.2 mph W5.1 kmh W 5.0 mph8.0 kmh 29.91 in1012.9 mb 0.00 in0.0 mm 0.00 in/hr0.0 mm/hr 0.00 in0.0 mm
05:20 AM 35.9°F2.2°C 27.1°F-2.7°C 70% 2.4 mph W3.9 kmh W 11.0 mph17.7 kmh 29.90 in1012.5 mb 0.00 in0.0 mm 0.00 in/hr0.0 mm/hr 0.00 in0.0 mm
05:10 AM 36.1°F2.3°C 27.3°F-2.6°C 70% 2.8 mph W4.5 kmh W 7.0 mph11.3 kmh 29.89 in1012.2 mb 0.00 in0.0 mm 0.00 in/hr0.0 mm/hr 0.00 in0.0 mm
05:00 AM 36.3°F2.4°C 27.1°F-2.7°C 69% 4.3 mph S6.9 kmh S 10.0 mph16.1 kmh 29.89 in1012.2 mb 0.00 in0.0 mm 0.00 in/hr0.0 mm/hr 0.00 in0.0 mm
04:50 AM 36.5°F2.5°C 26.9°F-2.8°C 68% 2.8 mph NW4.5 kmh NW 7.0 mph11.3 kmh 29.90 in1012.5 mb 0.00 in0.0 mm 0.00 in/hr0.0 mm/hr 0.00 in0.0 mm
04:40 AM 36.6°F2.6°C 27.4°F-2.6°C 69% 4.5 mph NW7.2 kmh NW 8.0 mph12.9 kmh 29.90 in1012.5 mb 0.00 in0.0 mm 0.00 in/hr0.0 mm/hr 0.00 in0.0 mm
04:30 AM 36.6°F2.6°C 27.7°F-2.4°C 70% 2.9 mph WSW4.7 kmh WSW 6.0 mph9.7 kmh 29.90 in1012.5 mb 0.00 in0.0 mm 0.00 in/hr0.0 mm/hr 0.00 in0.0 mm
04:20 AM 36.6°F2.6°C 28.1°F-2.2°C 71% 1.1 mph NW1.8 kmh NW 4.0 mph6.4 kmh 29.90 in1012.5 mb 0.00 in0.0 mm 0.00 in/hr0.0 mm/hr 0.00 in0.0 mm
04:10 AM 36.5°F2.5°C 28.3°F-2.1°C 72% 1.9 mph ESE3.1 kmh ESE 5.0 mph8.0 kmh 29.90 in1012.5 mb 0.00 in0.0 mm 0.00 in/hr0.0 mm/hr 0.00 in0.0 mm
04:00 AM 36.7°F2.6°C 28.2°F-2.1°C 71% 1.4 mph NE2.3 kmh NE 2.0 mph3.2 kmh 29.89 in1012.2 mb 0.00 in0.0 mm 0.00 in/hr0.0 mm/hr 0.00 in0.0 mm
03:50 AM 36.8°F2.7°C 27.9°F-2.3°C 70% 2.9 mph E4.7 kmh E 8.0 mph12.9 kmh 29.90 in1012.5 mb 0.00 in0.0 mm 0.00 in/hr0.0 mm/hr 0.00 in0.0 mm
03:40 AM 37.1°F2.8°C 28.2°F-2.1°C 70% 2.7 mph W4.3 kmh W 5.0 mph8.0 kmh 29.90 in1012.5 mb 0.00 in0.0 mm 0.00 in/hr0.0 mm/hr 0.00 in0.0 mm
03:30 AM 37.3°F2.9°C 28.1°F-2.2°C 69% 4.0 mph NE6.4 kmh NE 4.0 mph6.4 kmh 29.90 in1012.5 mb 0.00 in0.0 mm 0.00 in/hr0.0 mm/hr 0.00 in0.0 mm
03:20 AM 37.6°F3.1°C 28.3°F-2.1°C 69% 4.0 mph WNW6.4 kmh WNW 9.0 mph14.5 kmh 29.90 in1012.5 mb 0.00 in0.0 mm 0.00 in/hr0.0 mm/hr 0.00 in0.0 mm
03:10 AM 37.7°F3.2°C 28.1°F-2.2°C 68% 2.5 mph SW4.0 kmh SW 6.0 mph9.7 kmh 29.90 in1012.5 mb 0.00 in0.0 mm 0.00 in/hr0.0 mm/hr 0.00 in0.0 mm
03:00 AM 37.9°F3.3°C 27.9°F-2.3°C 67% 2.9 mph WSW4.7 kmh WSW 7.0 mph11.3 kmh 29.90 in1012.5 mb 0.00 in0.0 mm 0.00 in/hr0.0 mm/hr 0.00 in0.0 mm
02:50 AM 38.1°F3.4°C 27.7°F-2.4°C 66% 3.1 mph NNW5.0 kmh NNW 5.0 mph8.0 kmh 29.90 in1012.5 mb 0.00 in0.0 mm 0.00 in/hr0.0 mm/hr 0.00 in0.0 mm
02:40 AM 38.3°F3.5°C 27.9°F-2.3°C 66% 5.1 mph SSE8.2 kmh SSE 9.0 mph14.5 kmh 29.90 in1012.5 mb 0.00 in0.0 mm 0.00 in/hr0.0 mm/hr 0.00 in0.0 mm
02:30 AM 38.4°F3.6°C 28.4°F-2.0°C 67% 3.1 mph SE5.0 kmh SE 12.0 mph19.3 kmh 29.90 in1012.5 mb 0.00 in0.0 mm 0.00 in/hr0.0 mm/hr 0.00 in0.0 mm
02:20 AM 38.6°F3.7°C 28.9°F-1.7°C 68% 3.7 mph SE6.0 kmh SE 8.0 mph12.9 kmh 29.89 in1012.2 mb 0.00 in0.0 mm 0.00 in/hr0.0 mm/hr 0.00 in0.0 mm
02:10 AM 38.7°F3.7°C 29.0°F-1.7°C 68% 1.5 mph SE2.4 kmh SE 5.0 mph8.0 kmh 29.88 in1011.9 mb 0.00 in0.0 mm 0.00 in/hr0.0 mm/hr 0.00 in0.0 mm
02:00 AM 38.7°F3.7°C 29.0°F-1.7°C 68% 0.3 mph SSW0.5 kmh SSW -- 29.88 in1011.9 mb 0.00 in0.0 mm 0.00 in/hr0.0 mm/hr 0.00 in0.0 mm
01:50 AM 38.8°F3.8°C 28.8°F-1.8°C 67% 2.2 mph WSW3.5 kmh WSW 3.0 mph4.8 kmh 29.87 in1011.5 mb 0.00 in0.0 mm 0.00 in/hr0.0 mm/hr 0.00 in0.0 mm
01:40 AM 38.8°F3.8°C 28.8°F-1.8°C 67% 1.9 mph NW3.1 kmh NW 5.0 mph8.0 kmh 29.87 in1011.5 mb 0.00 in0.0 mm 0.00 in/hr0.0 mm/hr 0.00 in0.0 mm
01:30 AM 39.0°F3.9°C 29.0°F-1.7°C 67% 1.5 mph E2.4 kmh E 2.0 mph3.2 kmh 29.86 in1011.2 mb 0.00 in0.0 mm 0.00 in/hr0.0 mm/hr 0.00 in0.0 mm
01:20 AM 39.1°F3.9°C 29.1°F-1.6°C 67% 4.1 mph SW6.6 kmh SW 12.0 mph19.3 kmh 29.86 in1011.2 mb 0.00 in0.0 mm 0.00 in/hr0.0 mm/hr 0.00 in0.0 mm
01:10 AM 39.2°F4.0°C 29.5°F-1.4°C 68% 2.8 mph SW4.5 kmh SW 7.0 mph11.3 kmh 29.87 in1011.5 mb 0.00 in0.0 mm 0.00 in/hr0.0 mm/hr 0.00 in0.0 mm
01:00 AM 39.3°F4.1°C 29.6°F-1.3°C 68% 3.9 mph ESE6.3 kmh ESE 6.0 mph9.7 kmh 29.87 in1011.5 mb 0.00 in0.0 mm 0.00 in/hr0.0 mm/hr 0.00 in0.0 mm
12:50 AM 39.5°F4.2°C 29.8°F-1.2°C 68% 3.1 mph WNW5.0 kmh WNW 7.0 mph11.3 kmh 29.87 in1011.5 mb 0.00 in0.0 mm 0.00 in/hr0.0 mm/hr 0.00 in0.0 mm
12:40 AM 39.6°F4.2°C 30.3°F-0.9°C 69% 2.4 mph SSW3.9 kmh SSW 5.0 mph8.0 kmh 29.87 in1011.5 mb 0.00 in0.0 mm 0.00 in/hr0.0 mm/hr 0.00 in0.0 mm
12:30 AM 39.7°F4.3°C 30.4°F-0.9°C 69% 0.7 mph SW1.1 kmh SW 4.0 mph6.4 kmh 29.86 in1011.2 mb 0.00 in0.0 mm 0.00 in/hr0.0 mm/hr 0.00 in0.0 mm
12:20 AM 39.9°F4.4°C 30.2°F-1.0°C 68% 2.2 mph WNW3.5 kmh WNW 3.0 mph4.8 kmh 29.86 in1011.2 mb 0.00 in0.0 mm 0.00 in/hr0.0 mm/hr 0.00 in0.0 mm
12:10 AM 40.0°F4.4°C 30.3°F-0.9°C 68% 0.9 mph WSW1.4 kmh WSW 1.0 mph1.6 kmh 29.86 in1011.2 mb 0.00 in0.0 mm 0.00 in/hr0.0 mm/hr 0.00 in0.0 mm
12:00 AM 40.2°F4.6°C 30.5°F-0.8°C 68% 1.1 mph NW1.8 kmh NW 2.0 mph3.2 kmh 29.87 in1011.5 mb 0.00 in0.0 mm 0.00 in/hr0.0 mm/hr 0.00 in0.0 mm